createdAt,value
2023-04-18T00:01:46.133Z,100868.00
2023-04-18T00:04:14.774Z,100859.49
2023-04-18T00:06:43.408Z,100862.02
2023-04-18T00:09:11.998Z,100859.36
2023-04-18T00:11:40.982Z,100861.35
2023-04-18T00:14:10.543Z,100858.14
2023-04-18T00:16:39.064Z,100853.12
2023-04-18T00:19:08.996Z,100854.30
2023-04-18T00:21:38.223Z,100850.84
2023-04-18T00:24:06.693Z,100849.37
2023-04-18T00:26:34.772Z,100849.56
2023-04-18T00:29:04.092Z,100849.67
2023-04-18T00:31:32.830Z,100848.64
2023-04-18T00:34:00.999Z,100846.27
2023-04-18T00:36:29.076Z,100842.39
2023-04-18T00:38:57.239Z,100841.81
2023-04-18T00:41:28.286Z,100842.47
2023-04-18T00:43:56.462Z,100843.08
2023-04-18T00:46:25.563Z,100845.14
2023-04-18T00:48:54.101Z,100841.36
2023-04-18T00:51:23.466Z,100846.02
2023-04-18T00:53:51.911Z,100842.83
2023-04-18T00:56:20.622Z,100846.39
2023-04-18T00:58:48.738Z,100844.91
2023-04-18T01:01:18.318Z,100842.13
2023-04-18T01:03:46.617Z,100844.80
2023-04-18T01:06:16.407Z,100845.54
2023-04-18T01:08:45.212Z,100842.29
2023-04-18T01:11:13.397Z,100842.01
2023-04-18T01:13:41.512Z,100843.08
2023-04-18T01:16:09.669Z,100847.64
2023-04-18T01:18:40.453Z,100846.17
2023-04-18T01:21:09.422Z,100841.44
2023-04-18T01:23:37.753Z,100840.20
2023-04-18T01:26:07.632Z,100837.02
2023-04-18T01:28:37.610Z,100837.06
2023-04-18T01:31:05.950Z,100835.08
2023-04-18T01:33:37.569Z,100832.45
2023-04-18T01:36:05.851Z,100834.06
2023-04-18T01:38:33.930Z,100835.59
2023-04-18T01:41:02.653Z,100836.19
2023-04-18T01:43:30.780Z,100839.34
2023-04-18T01:45:58.949Z,100837.34
2023-04-18T01:48:27.101Z,100835.53
2023-04-18T01:50:55.194Z,100837.31
2023-04-18T01:53:24.343Z,100833.09
2023-04-18T01:55:52.609Z,100832.44
2023-04-18T01:58:23.895Z,100831.21
2023-04-18T02:00:53.624Z,100827.89
2023-04-18T02:03:22.900Z,100829.78
2023-04-18T02:05:52.144Z,100829.23
2023-04-18T02:08:20.256Z,100831.70
2023-04-18T02:10:48.366Z,100834.69
2023-04-18T02:13:16.530Z,100836.23
2023-04-18T02:15:46.140Z,100833.45
2023-04-18T02:18:17.724Z,100837.10
2023-04-18T02:20:45.889Z,100833.77
2023-04-18T02:23:13.982Z,100830.33
2023-04-18T02:25:42.062Z,100827.64
2023-04-18T02:28:10.922Z,100830.01
2023-04-18T02:30:39.077Z,100825.86
2023-04-18T02:33:07.342Z,100821.55
2023-04-18T02:35:35.590Z,100818.32
2023-04-18T02:38:03.742Z,100821.36
2023-04-18T02:40:31.953Z,100826.19
2023-04-18T02:43:02.274Z,100831.35
2023-04-18T02:45:30.824Z,100831.02
2023-04-18T02:47:59.970Z,100832.13
2023-04-18T02:50:29.226Z,100826.27
2023-04-18T02:52:57.962Z,100826.42
2023-04-18T02:55:32.231Z,100824.30
2023-04-18T02:58:01.031Z,100826.12
2023-04-18T03:00:58.254Z,100827.94
2023-04-18T03:03:46.734Z,100828.84
2023-04-18T03:06:30.015Z,100824.48
2023-04-18T03:08:59.014Z,100825.69
2023-04-18T03:11:27.481Z,100826.71
2023-04-18T03:13:56.426Z,100826.38
2023-04-18T03:16:26.311Z,100830.87
2023-04-18T03:18:54.725Z,100829.25
2023-04-18T03:21:23.364Z,100826.19
2023-04-18T03:23:53.351Z,100831.17
2023-04-18T03:26:24.814Z,100834.46
2023-04-18T03:28:53.298Z,100835.02
2023-04-18T03:31:21.620Z,100834.41
2023-04-18T03:33:51.740Z,100833.10
2023-04-18T03:36:25.490Z,100833.33
2023-04-18T03:38:55.170Z,100832.40
2023-04-18T03:41:25.043Z,100830.15
2023-04-18T03:43:53.634Z,100835.51
2023-04-18T03:46:22.338Z,100831.39
2023-04-18T03:48:52.331Z,100837.41
2023-04-18T03:51:20.474Z,100837.14
2023-04-18T03:53:48.570Z,100838.38
2023-04-18T03:56:18.166Z,100835.65
2023-04-18T03:58:51.560Z,100833.95
2023-04-18T04:01:21.714Z,100833.70
2023-04-18T04:03:53.466Z,100835.67
2023-04-18T04:06:22.211Z,100841.17
2023-04-18T04:08:50.549Z,100842.38
2023-04-18T04:11:22.161Z,100843.98
2023-04-18T04:13:50.617Z,100847.76
2023-04-18T04:16:21.501Z,100847.05
2023-04-18T04:18:50.716Z,100846.92
2023-04-18T04:21:21.291Z,100848.16
2023-04-18T04:23:54.022Z,100847.10
2023-04-18T04:26:35.814Z,100849.41
2023-04-18T04:29:16.007Z,100851.78
2023-04-18T04:31:44.806Z,100856.63
2023-04-18T04:34:13.190Z,100861.92
2023-04-18T04:36:43.287Z,100859.64
2023-04-18T04:39:14.018Z,100864.34
2023-04-18T04:41:54.007Z,100864.63
2023-04-18T04:44:26.105Z,100864.94
2023-04-18T04:46:55.154Z,100865.23
2023-04-18T04:49:26.394Z,100866.28
2023-04-18T04:51:54.729Z,100867.95
2023-04-18T04:54:23.393Z,100868.66
2023-04-18T04:56:51.825Z,100868.73
2023-04-18T04:59:20.909Z,100869.35
2023-04-18T05:01:49.233Z,100868.64
2023-04-18T05:04:17.985Z,100864.91
2023-04-18T05:06:46.840Z,100873.92
2023-04-18T05:09:15.384Z,100873.98
2023-04-18T05:11:43.537Z,100874.73
2023-04-18T05:14:12.969Z,100874.56
2023-04-18T05:16:41.845Z,100876.70
2023-04-18T05:19:10.042Z,100875.42
2023-04-18T05:21:38.262Z,100875.48
2023-04-18T05:24:06.480Z,100875.91
2023-04-18T05:26:35.027Z,100878.29
2023-04-18T05:29:03.279Z,100878.13
2023-04-18T05:31:31.678Z,100876.83
2023-04-18T05:33:59.822Z,100880.30
2023-04-18T05:36:28.032Z,100883.98
2023-04-18T05:38:56.257Z,100883.41
2023-04-18T05:41:24.413Z,100883.63
2023-04-18T05:44:04.358Z,100886.98
2023-04-18T05:46:33.859Z,100889.89
2023-04-18T05:49:03.660Z,100891.60
2023-04-18T05:51:32.171Z,100887.59
2023-04-18T05:54:00.416Z,100888.52
2023-04-18T05:56:28.652Z,100883.84
2023-04-18T05:58:56.722Z,100885.65
2023-04-18T06:01:25.032Z,100883.77
2023-04-18T06:03:54.996Z,100881.75
2023-04-18T06:06:23.588Z,100879.98
2023-04-18T06:08:51.957Z,100880.14
2023-04-18T06:11:22.873Z,100881.05
2023-04-18T06:13:51.020Z,100880.70
2023-04-18T06:16:19.212Z,100877.58
2023-04-18T06:18:47.918Z,100879.57
2023-04-18T06:21:16.203Z,100887.46
2023-04-18T06:23:44.423Z,100886.19
2023-04-18T06:26:12.645Z,100884.38
2023-04-18T06:28:41.566Z,100885.83
2023-04-18T06:31:09.769Z,100885.27
2023-04-18T06:33:38.170Z,100890.77
2023-04-18T06:36:07.416Z,100888.77
2023-04-18T06:38:35.544Z,100888.65
2023-04-18T06:41:03.772Z,100888.02
2023-04-18T06:43:31.918Z,100891.27
2023-04-18T06:46:00.084Z,100891.41
2023-04-18T06:48:28.277Z,100897.48
2023-04-18T06:50:56.364Z,100896.89
2023-04-18T06:53:24.647Z,100893.36
2023-04-18T06:55:52.865Z,100894.88
2023-04-18T06:58:20.934Z,100895.42
2023-04-18T07:00:52.200Z,100894.73
2023-04-18T07:03:20.622Z,100896.96
2023-04-18T07:05:50.592Z,100898.69
2023-04-18T07:08:18.802Z,100898.17
2023-04-18T07:10:46.925Z,100902.48
2023-04-18T07:13:14.981Z,100902.58
2023-04-18T07:15:43.171Z,100905.80
2023-04-18T07:18:11.413Z,100903.42
2023-04-18T07:20:40.549Z,100903.64
2023-04-18T07:23:10.589Z,100903.10
2023-04-18T07:25:39.176Z,100905.34
2023-04-18T07:28:07.414Z,100904.70
2023-04-18T07:30:35.664Z,100910.66
2023-04-18T07:33:03.835Z,100913.59
2023-04-18T07:35:31.953Z,100915.27
2023-04-18T07:38:01.386Z,100912.91
2023-04-18T07:40:29.552Z,100915.27
2023-04-18T07:42:57.819Z,100914.77
2023-04-18T07:45:26.124Z,100911.41
2023-04-18T07:47:54.299Z,100911.82
2023-04-18T07:50:24.361Z,100913.35
2023-04-18T07:52:52.458Z,100910.27
2023-04-18T07:55:20.696Z,100910.96
2023-04-18T07:57:50.674Z,100911.67
2023-04-18T08:00:19.054Z,100910.95
2023-04-18T08:02:47.440Z,100913.10
2023-04-18T08:05:15.855Z,100914.35
2023-04-18T08:07:44.022Z,100914.90
2023-04-18T08:10:12.208Z,100914.58
2023-04-18T08:12:40.816Z,100915.73
2023-04-18T08:15:09.481Z,100917.12
2023-04-18T08:17:39.179Z,100917.70
2023-04-18T08:20:08.006Z,100919.87
2023-04-18T08:22:44.006Z,100918.84
2023-04-18T08:25:18.736Z,100923.40
2023-04-18T08:27:46.821Z,100924.92
2023-04-18T08:30:15.720Z,100925.73
2023-04-18T08:32:44.365Z,100927.98
2023-04-18T08:35:12.553Z,100929.79
2023-04-18T08:37:40.774Z,100931.42
2023-04-18T08:40:09.154Z,100931.88
2023-04-18T08:42:40.023Z,100928.32
2023-04-18T08:45:09.524Z,100929.01
2023-04-18T08:47:37.657Z,100928.95
2023-04-18T08:50:06.825Z,100930.05
2023-04-18T08:52:36.530Z,100927.20
2023-04-18T08:55:05.445Z,100931.11
2023-04-18T08:57:36.101Z,100929.93
2023-04-18T09:00:10.590Z,100930.51
2023-04-18T09:02:44.689Z,100930.98
2023-04-18T09:05:14.540Z,100935.64
2023-04-18T09:07:43.013Z,100933.02
2023-04-18T09:10:12.766Z,100931.13
2023-04-18T09:12:52.523Z,100933.52
2023-04-18T09:15:27.116Z,100936.20
2023-04-18T09:17:58.398Z,100934.70
2023-04-18T09:20:34.864Z,100934.71
2023-04-18T09:23:14.751Z,100935.52
2023-04-18T09:25:48.255Z,100932.48
2023-04-18T09:28:30.616Z,100931.88
2023-04-18T09:31:13.463Z,100936.39
2023-04-18T09:33:54.506Z,100940.65
2023-04-18T09:36:27.422Z,100938.55
2023-04-18T09:38:56.960Z,100934.93
2023-04-18T09:41:25.621Z,100937.25
2023-04-18T09:44:14.641Z,100940.88
2023-04-18T09:46:47.158Z,100942.83
2023-04-18T09:49:17.079Z,100941.85
2023-04-18T09:51:46.443Z,100938.42
2023-04-18T09:54:16.567Z,100935.14
2023-04-18T09:56:46.419Z,100934.69
2023-04-18T09:59:21.198Z,100931.26
2023-04-18T10:01:50.955Z,100934.87
2023-04-18T10:04:20.067Z,100931.38
2023-04-18T10:06:49.074Z,100929.02
2023-04-18T10:09:18.363Z,100928.16
2023-04-18T10:11:47.269Z,100929.14
2023-04-18T10:14:16.965Z,100927.81
2023-04-18T10:16:46.804Z,100922.88
2023-04-18T10:19:27.457Z,100922.90
2023-04-18T10:22:01.078Z,100914.84
2023-04-18T10:24:55.241Z,100912.28
2023-04-18T10:27:48.215Z,100901.20
2023-04-18T10:30:17.210Z,100890.31
2023-04-18T10:32:48.173Z,100877.86
2023-04-18T10:35:21.394Z,100868.02
2023-04-18T10:37:59.188Z,100868.84
2023-04-18T10:40:34.856Z,100878.23
2023-04-18T10:43:03.136Z,100891.41
2023-04-18T10:45:36.535Z,100901.29
2023-04-18T10:48:30.341Z,100905.14
2023-04-18T10:51:19.172Z,100902.53
2023-04-18T10:53:53.502Z,100909.60
2023-04-18T10:56:21.910Z,100908.80
2023-04-18T10:58:52.422Z,100909.90
2023-04-18T11:01:32.106Z,100905.40
2023-04-18T11:04:01.571Z,100905.19
2023-04-18T11:06:31.520Z,100899.48
2023-04-18T11:09:13.778Z,100900.58
2023-04-18T11:11:44.308Z,100895.78
2023-04-18T11:14:13.090Z,100893.79
2023-04-18T11:16:41.619Z,100893.49
2023-04-18T11:19:21.608Z,100895.65
2023-04-18T11:21:51.526Z,100892.35
2023-04-18T11:24:24.534Z,100897.10
2023-04-18T11:26:56.225Z,100897.31
2023-04-18T11:29:24.591Z,100899.51
2023-04-18T11:31:56.708Z,100900.77
2023-04-18T11:34:33.030Z,100900.34
2023-04-18T11:37:02.181Z,100897.46
2023-04-18T11:39:35.378Z,100896.17
2023-04-18T11:42:03.686Z,100895.38
2023-04-18T11:44:34.331Z,100893.05
2023-04-18T11:47:03.812Z,100894.95
2023-04-18T11:49:33.143Z,100893.91
2023-04-18T11:52:01.791Z,100897.19
2023-04-18T11:54:43.511Z,100892.98
2023-04-18T11:57:24.868Z,100890.79
2023-04-18T11:59:56.876Z,100889.32
2023-04-18T12:02:27.741Z,100890.83
2023-04-18T12:05:00.577Z,100890.91
2023-04-18T12:07:33.298Z,100886.79
2023-04-18T12:10:01.844Z,100888.24
2023-04-18T12:12:30.022Z,100887.73
2023-04-18T12:15:13.987Z,100883.45
2023-04-18T12:17:44.792Z,100886.11
2023-04-18T12:20:13.982Z,100888.29
2023-04-18T12:22:46.264Z,100889.09
2023-04-18T12:25:24.356Z,100882.50
2023-04-18T12:28:00.219Z,100882.14
2023-04-18T12:30:36.022Z,100884.34
2023-04-18T12:33:06.792Z,100882.09
2023-04-18T12:35:35.749Z,100882.02
2023-04-18T12:38:05.013Z,100881.71
2023-04-18T12:40:33.201Z,100880.17
2023-04-18T12:43:03.367Z,100876.31
2023-04-18T12:45:32.060Z,100874.14
2023-04-18T12:48:00.478Z,100874.31
2023-04-18T12:50:28.761Z,100873.14
2023-04-18T12:52:59.586Z,100870.75
2023-04-18T12:55:28.959Z,100872.54
2023-04-18T12:57:58.260Z,100871.10
2023-04-18T13:00:31.404Z,100866.32
2023-04-18T13:03:00.160Z,100867.64
2023-04-18T13:05:33.039Z,100869.13
2023-04-18T13:08:15.314Z,100872.97
2023-04-18T13:10:46.292Z,100871.14
2023-04-18T13:13:14.568Z,100873.52
2023-04-18T13:15:42.932Z,100874.85
2023-04-18T13:18:11.047Z,100876.91
2023-04-18T13:20:39.505Z,100874.40
2023-04-18T13:23:07.679Z,100875.10
2023-04-18T13:25:35.851Z,100875.20
2023-04-18T13:28:04.216Z,100876.05
2023-04-18T13:30:32.444Z,100875.14
2023-04-18T13:33:00.727Z,100876.98
2023-04-18T13:35:29.147Z,100876.32
2023-04-18T13:37:57.364Z,100875.83
2023-04-18T13:40:25.553Z,100876.19
2023-04-18T13:42:53.716Z,100877.64
2023-04-18T13:45:21.865Z,100878.10
2023-04-18T13:47:50.083Z,100876.37
2023-04-18T13:50:18.533Z,100875.56
2023-04-18T13:52:48.265Z,100877.77
2023-04-18T13:55:16.463Z,100878.09
2023-04-18T13:57:44.609Z,100878.79
2023-04-18T14:00:14.505Z,100879.63
2023-04-18T14:02:42.929Z,100880.58
2023-04-18T14:05:11.430Z,100881.05
2023-04-18T14:07:39.948Z,100877.21
2023-04-18T14:10:08.517Z,100880.93
2023-04-18T14:12:36.842Z,100877.11
2023-04-18T14:15:05.763Z,100879.05
2023-04-18T14:17:34.479Z,100878.16
2023-04-18T14:20:02.921Z,100878.64
2023-04-18T14:22:31.254Z,100879.96
2023-04-18T14:24:59.463Z,100880.80
2023-04-18T14:27:27.995Z,100880.36
2023-04-18T14:29:56.251Z,100877.99
2023-04-18T14:32:24.452Z,100878.63
2023-04-18T14:34:52.998Z,100880.17
2023-04-18T14:37:21.402Z,100879.08
2023-04-18T14:39:49.612Z,100879.61
2023-04-18T14:42:18.765Z,100880.27
2023-04-18T14:44:46.911Z,100878.36
2023-04-18T14:47:15.224Z,100875.85
2023-04-18T14:49:43.440Z,100874.26
2023-04-18T14:52:11.554Z,100876.64
2023-04-18T14:54:39.844Z,100877.07
2023-04-18T14:57:08.668Z,100874.73
2023-04-18T14:59:36.858Z,100873.90
2023-04-18T15:02:06.170Z,100873.00
2023-04-18T15:04:34.737Z,100875.78
2023-04-18T15:07:03.165Z,100871.52
2023-04-18T15:09:37.293Z,100875.27
2023-04-18T15:12:06.831Z,100877.77
2023-04-18T15:14:36.535Z,100878.88
2023-04-18T15:17:06.081Z,100880.68
2023-04-18T15:19:34.697Z,100883.67
2023-04-18T15:22:03.216Z,100882.67
2023-04-18T15:24:31.364Z,100886.02
2023-04-18T15:26:59.710Z,100883.52
2023-04-18T15:29:27.971Z,100885.23
2023-04-18T15:31:56.733Z,100880.77
2023-04-18T15:34:24.960Z,100878.83
2023-04-18T15:36:53.214Z,100877.23
2023-04-18T15:39:23.801Z,100877.04
2023-04-18T15:41:56.654Z,100873.73
2023-04-18T15:44:24.796Z,100875.24
2023-04-18T15:46:53.096Z,100873.99
2023-04-18T15:49:22.194Z,100871.04
2023-04-18T15:51:50.303Z,100870.09
2023-04-18T15:54:18.405Z,100871.11
2023-04-18T15:56:47.928Z,100872.84
2023-04-18T15:59:16.163Z,100872.71
2023-04-18T16:01:46.188Z,100869.79
2023-04-18T16:04:15.819Z,100876.61
2023-04-18T16:06:44.584Z,100876.16
2023-04-18T16:09:12.689Z,100874.94
2023-04-18T16:11:40.780Z,100878.35
2023-04-18T16:14:08.977Z,100877.91
2023-04-18T16:16:37.198Z,100875.19
2023-04-18T16:19:08.539Z,100876.02
2023-04-18T16:21:36.728Z,100875.63
2023-04-18T16:24:05.268Z,100876.96
2023-04-18T16:26:33.488Z,100876.94
2023-04-18T16:29:01.762Z,100873.02
2023-04-18T16:31:30.182Z,100875.48
2023-04-18T16:33:58.367Z,100872.68
2023-04-18T16:36:26.727Z,100869.21
2023-04-18T16:38:54.888Z,100870.52
2023-04-18T16:41:22.960Z,100874.20
2023-04-18T16:43:51.224Z,100876.23
2023-04-18T16:46:19.393Z,100878.06
2023-04-18T16:48:49.041Z,100876.99
2023-04-18T16:51:18.621Z,100880.65
2023-04-18T16:53:46.836Z,100883.32
2023-04-18T16:56:16.155Z,100882.98
2023-04-18T16:58:44.243Z,100885.29
2023-04-18T17:01:12.400Z,100885.98
2023-04-18T17:03:41.111Z,100888.05
2023-04-18T17:06:09.439Z,100885.85
2023-04-18T17:08:37.761Z,100888.80
2023-04-18T17:11:06.525Z,100886.23
2023-04-18T17:13:36.742Z,100887.29
2023-04-18T17:16:05.210Z,100890.52
2023-04-18T17:18:33.574Z,100888.20
2023-04-18T17:21:01.824Z,100882.00
2023-04-18T17:23:30.965Z,100885.55
2023-04-18T17:26:01.075Z,100886.02
2023-04-18T17:28:29.630Z,100884.20
2023-04-18T17:30:58.698Z,100884.60
2023-04-18T17:33:26.814Z,100886.09
2023-04-18T17:35:55.111Z,100883.16
2023-04-18T17:38:24.092Z,100883.55
2023-04-18T17:41:00.230Z,100882.98
2023-04-18T17:43:29.020Z,100885.44
2023-04-18T17:46:00.093Z,100888.22
2023-04-18T17:48:28.390Z,100886.59
2023-04-18T17:50:56.978Z,100884.14
2023-04-18T17:53:25.160Z,100882.71
2023-04-18T17:55:53.352Z,100885.29
2023-04-18T17:58:21.877Z,100886.66
2023-04-18T18:00:50.000Z,100887.61
2023-04-18T18:03:18.838Z,100889.38
2023-04-18T18:05:49.219Z,100886.00
2023-04-18T18:08:17.698Z,100882.58
2023-04-18T18:10:47.183Z,100885.20
2023-04-18T18:13:15.950Z,100878.84
2023-04-18T18:15:44.080Z,100877.19
2023-04-18T18:18:12.136Z,100877.99
2023-04-18T18:20:43.529Z,100875.69
2023-04-18T18:23:11.645Z,100869.52
2023-04-18T18:25:40.426Z,100866.20
2023-04-18T18:28:08.481Z,100864.05
2023-04-18T18:30:38.220Z,100865.11
2023-04-18T18:33:06.406Z,100866.81
2023-04-18T18:35:35.224Z,100858.30
2023-04-18T18:38:03.328Z,100859.02
2023-04-18T18:40:31.488Z,100856.95
2023-04-18T18:42:59.595Z,100856.16
2023-04-18T18:45:27.772Z,100855.15
2023-04-18T18:47:56.005Z,100856.55
2023-04-18T18:50:24.135Z,100852.83
2023-04-18T18:52:52.262Z,100850.19
2023-04-18T18:55:20.408Z,100848.61
2023-04-18T18:57:48.549Z,100846.50
2023-04-18T19:00:16.963Z,100842.89
2023-04-18T19:02:45.225Z,100841.67
2023-04-18T19:05:13.672Z,100841.70
2023-04-18T19:07:42.474Z,100843.23
2023-04-18T19:10:11.280Z,100842.11
2023-04-18T19:12:39.547Z,100842.81
2023-04-18T19:15:08.571Z,100840.99
2023-04-18T19:17:36.692Z,100840.02
2023-04-18T19:20:05.320Z,100836.31
2023-04-18T19:22:33.449Z,100833.38
2023-04-18T19:25:01.630Z,100830.39
2023-04-18T19:27:29.733Z,100829.42
2023-04-18T19:29:57.801Z,100832.02
2023-04-18T19:32:26.393Z,100825.40
2023-04-18T19:34:54.546Z,100823.61
2023-04-18T19:37:22.698Z,100817.27
2023-04-18T19:39:50.986Z,100813.20
2023-04-18T19:42:19.324Z,100812.15
2023-04-18T19:44:47.474Z,100810.73
2023-04-18T19:47:15.680Z,100805.96
2023-04-18T19:49:44.664Z,100807.79
2023-04-18T19:52:12.916Z,100806.10
2023-04-18T19:54:41.449Z,100805.55
2023-04-18T19:57:09.598Z,100803.95
2023-04-18T19:59:37.717Z,100799.15
2023-04-18T20:02:06.737Z,100798.23
2023-04-18T20:04:36.828Z,100797.66
2023-04-18T20:07:05.153Z,100796.02
2023-04-18T20:09:33.381Z,100796.20
2023-04-18T20:12:02.227Z,100794.30
2023-04-18T20:14:32.328Z,100789.98
2023-04-18T20:17:00.497Z,100791.44
2023-04-18T20:19:29.974Z,100790.54
2023-04-18T20:21:58.076Z,100788.84
2023-04-18T20:24:28.296Z,100785.00
2023-04-18T20:26:59.429Z,100783.38
2023-04-18T20:29:33.254Z,100781.05
2023-04-18T20:32:01.835Z,100781.79
2023-04-18T20:34:31.482Z,100781.04
2023-04-18T20:37:00.315Z,100775.93
2023-04-18T20:39:28.654Z,100775.68
2023-04-18T20:41:57.914Z,100772.27
2023-04-18T20:44:26.412Z,100773.66
2023-04-18T20:46:54.686Z,100772.07
2023-04-18T20:49:22.961Z,100772.25
2023-04-18T20:51:51.092Z,100769.21
2023-04-18T20:54:19.160Z,100768.20
2023-04-18T20:56:47.255Z,100765.73
2023-04-18T20:59:15.446Z,100761.42
2023-04-18T21:01:43.556Z,100759.41
2023-04-18T21:04:12.008Z,100757.02
2023-04-18T21:06:40.367Z,100752.50
2023-04-18T21:09:09.100Z,100750.44
2023-04-18T21:11:37.408Z,100747.66
2023-04-18T21:14:06.892Z,100742.92
2023-04-18T21:16:39.449Z,100739.03
2023-04-18T21:19:08.559Z,100739.48
2023-04-18T21:21:36.763Z,100740.77
2023-04-18T21:24:05.766Z,100734.83
2023-04-18T21:26:33.972Z,100731.55
2023-04-18T21:29:06.962Z,100734.67
2023-04-18T21:31:35.575Z,100736.34
2023-04-18T21:34:05.081Z,100733.85
2023-04-18T21:36:33.358Z,100734.33
2023-04-18T21:39:01.605Z,100735.22
2023-04-18T21:41:29.776Z,100731.38
2023-04-18T21:43:57.917Z,100732.34
2023-04-18T21:46:26.172Z,100734.16
2023-04-18T21:48:54.479Z,100731.60
2023-04-18T21:51:22.612Z,100729.42
2023-04-18T21:53:50.869Z,100722.16
2023-04-18T21:56:19.020Z,100719.75
2023-04-18T21:58:47.838Z,100715.65
2023-04-18T22:01:16.096Z,100717.27
2023-04-18T22:03:44.512Z,100715.39
2023-04-18T22:06:13.482Z,100713.66
2023-04-18T22:08:42.321Z,100711.07
2023-04-18T22:11:11.885Z,100704.27
2023-04-18T22:13:40.034Z,100704.48
2023-04-18T22:16:09.677Z,100709.72
2023-04-18T22:18:38.145Z,100706.00
2023-04-18T22:21:06.971Z,100701.23
2023-04-18T22:23:35.813Z,100698.71
2023-04-18T22:26:03.983Z,100694.52
2023-04-18T22:28:32.922Z,100691.77
2023-04-18T22:31:01.103Z,100688.31
2023-04-18T22:33:29.192Z,100685.64
2023-04-18T22:35:57.552Z,100683.20
2023-04-18T22:38:26.044Z,100681.35
2023-04-18T22:40:54.401Z,100682.33
2023-04-18T22:43:23.976Z,100677.79
2023-04-18T22:45:52.195Z,100671.83
2023-04-18T22:48:20.481Z,100666.27
2023-04-18T22:50:50.102Z,100656.80
2023-04-18T22:53:18.450Z,100649.09
2023-04-18T22:55:46.953Z,100643.15
2023-04-18T22:58:15.211Z,100640.33
2023-04-18T23:00:43.407Z,100633.50
2023-04-18T23:03:11.751Z,100629.94
2023-04-18T23:05:40.612Z,100623.16
2023-04-18T23:08:08.796Z,100625.48
2023-04-18T23:10:36.992Z,100630.04
2023-04-18T23:13:05.066Z,100629.13
2023-04-18T23:15:33.470Z,100630.52
2023-04-18T23:18:01.992Z,100625.31
2023-04-18T23:20:30.466Z,100620.11
2023-04-18T23:22:58.794Z,100617.34
2023-04-18T23:25:26.901Z,100617.81
2023-04-18T23:27:55.026Z,100613.98
2023-04-18T23:30:23.165Z,100612.38
2023-04-18T23:32:51.328Z,100609.98
2023-04-18T23:35:19.466Z,100609.32
2023-04-18T23:37:47.579Z,100607.47
2023-04-18T23:40:15.904Z,100603.30
2023-04-18T23:42:45.881Z,100603.33
2023-04-18T23:45:14.292Z,100597.33
2023-04-18T23:47:42.446Z,100596.64
2023-04-18T23:50:11.283Z,100592.56
2023-04-18T23:52:39.384Z,100589.29
2023-04-18T23:55:08.950Z,100584.77
2023-04-18T23:57:37.027Z,100584.25
